Time;durP1;ratioP1;P1;durP2;ratioP2;P2;SDS_P1;SDS_P2;PMS_P1;PMS_P2;Temp;Humidity;BMP_temperature;BMP_pressure;BME280_temperature;BME280_humidity;BME280_pressure;Samples;Min_cycle;Max_cycle;Signal;HPM_P1;HPM_P2
2023/01/16 00:00:28;;;;;;;3.50;1.75;;;;;;;-142.75;100.00;76464.00;5000215;28;20117;-67
2023/01/16 00:02:53;;;;;;;5.70;1.40;;;;;;;-142.75;100.00;76456.13;5000036;28;20068;-67
2023/01/16 00:05:19;;;;;;;3.55;1.65;;;;;;;-142.75;100.00;76458.09;4999922;28;20133;-67
2023/01/16 00:07:44;;;;;;;6.47;1.58;;;;;;;-142.75;100.00;76446.28;4998747;28;20059;-66
2023/01/16 00:10:10;;;;;;;1.77;1.25;;;;;;;-142.75;100.00;76432.50;4999777;28;20037;-67
2023/01/16 00:12:35;;;;;;;2.92;1.15;;;;;;;-142.75;100.00;76444.31;4982311;28;20435;-65
2023/01/16 00:15:01;;;;;;;4.18;1.70;;;;;;;-142.75;100.00;76454.16;4999850;28;20479;-67
2023/01/16 00:17:26;;;;;;;4.07;1.88;;;;;;;-142.75;100.00;76452.19;4999054;28;20053;-67
2023/01/16 00:19:51;;;;;;;2.80;1.42;;;;;;;-142.75;100.00;76448.25;5000050;28;20991;-68
2023/01/16 00:22:17;;;;;;;5.72;1.70;;;;;;;-142.75;100.00;76440.38;4999829;28;20033;-68
2023/01/16 00:24:42;;;;;;;4.20;2.20;;;;;;;-142.75;100.00;76444.31;4999702;28;20022;-67
2023/01/16 00:27:07;;;;;;;3.25;2.00;;;;;;;-142.75;100.00;76450.22;4998964;28;20388;-68
2023/01/16 00:29:33;;;;;;;4.38;1.98;;;;;;;-142.75;100.00;76442.34;4999764;28;20034;-67
2023/01/16 00:31:58;;;;;;;5.40;2.30;;;;;;;-142.75;100.00;76436.44;4999424;28;20500;-68
2023/01/16 00:34:23;;;;;;;5.50;2.00;;;;;;;-142.75;100.00;76432.50;4999459;28;20049;-67
2023/01/16 00:36:49;;;;;;;9.85;2.70;;;;;;;-142.75;100.00;76426.59;5015765;28;20450;-67
2023/01/16 00:39:14;;;;;;;4.78;2.85;;;;;;;-142.75;100.00;76424.63;5018615;28;20024;-67
2023/01/16 00:41:39;;;;;;;5.03;2.22;;;;;;;-142.75;100.00;76424.63;5018813;28;20032;-66
2023/01/16 00:44:04;;;;;;;4.53;2.15;;;;;;;-142.75;100.00;76426.59;5001328;28;20025;-68
2023/01/16 00:46:32;;;;;;;9.68;3.00;;;;;;;-142.75;100.00;76420.69;5018886;28;20033;-66
2023/01/16 00:48:57;;;;;;;7.63;2.67;;;;;;;-142.75;100.00;76412.81;5018328;28;20037;-66
2023/01/16 00:51:22;;;;;;;7.65;2.85;;;;;;;-142.75;100.00;76395.09;5019072;28;20305;-68
2023/01/16 00:53:48;;;;;;;13.13;2.60;;;;;;;-142.75;100.00;76416.75;5019293;28;20021;-68
2023/01/16 00:56:13;;;;;;;7.25;2.75;;;;;;;-142.75;100.00;76412.81;5018718;28;20025;-67
2023/01/16 00:58:39;;;;;;;4.78;2.45;;;;;;;-142.75;100.00;76422.66;5001026;28;20025;-67
2023/01/16 01:01:04;;;;;;;6.13;2.70;;;;;;;-142.75;100.00;76395.09;5019050;28;20025;-68
2023/01/16 01:03:30;;;;;;;12.90;3.10;;;;;;;-142.75;100.00;76391.16;5018906;28;20033;-67
2023/01/16 01:05:56;;;;;;;10.90;3.22;;;;;;;-142.75;100.00;76379.34;5019361;28;20025;-65
2023/01/16 01:08:21;;;;;;;11.07;2.83;;;;;;;-142.75;100.00;76393.13;5033190;22;20045;-66
2023/01/16 01:10:46;;;;;;;7.70;3.42;;;;;;;-142.75;100.00;76393.13;4999585;28;20122;-66
2023/01/16 01:13:13;;;;;;;13.95;3.55;;;;;;;-142.75;100.00;76389.19;4999188;28;20034;-67
2023/01/16 01:15:38;;;;;;;7.87;3.37;;;;;;;-142.75;100.00;76401.00;4981454;28;20449;-67
2023/01/16 01:18:04;;;;;;;9.13;3.80;;;;;;;-142.75;100.00;76375.41;4998192;28;20038;-66
2023/01/16 01:20:29;;;;;;;9.57;3.58;;;;;;;-142.75;100.00;76369.50;4999336;28;20088;-66
2023/01/16 01:22:55;;;;;;;11.50;3.63;;;;;;;-142.75;100.00;76373.44;4999549;28;20094;-65
2023/01/16 01:25:21;;;;;;;9.85;3.55;;;;;;;-142.75;100.00;76373.44;4998685;28;20437;-65
2023/01/16 01:27:46;;;;;;;;;;;;;;;-142.75;100.00;76367.53;4981403;28;20018;-67
2023/01/16 01:30:12;;;;;;;9.60;3.50;;;;;;;-142.75;100.00;76361.63;4981538;28;19925;-66
2023/01/16 01:32:37;;;;;;;6.95;3.40;;;;;;;-142.75;100.00;76343.94;4999082;28;20630;-67
2023/01/16 01:35:07;;;;;;;15.00;3.63;;;;;;;-142.75;100.00;76340.00;5000744;28;20064;-67
2023/01/16 01:37:32;;;;;;;10.67;3.33;;;;;;;-142.75;100.00;76361.63;5017896;28;20686;-64
2023/01/16 01:39:58;;;;;;;6.63;2.67;;;;;;;-142.75;100.00;76351.81;5018391;28;20026;-66
2023/01/16 01:42:42;;;;;;;9.55;2.67;;;;;;;-142.75;100.00;76341.97;5018798;28;20025;-65
2023/01/16 01:45:25;;;;;;;5.27;2.50;;;;;;;-142.75;100.00;76318.34;5018302;28;20029;-67
2023/01/16 01:48:12;;;;;;;7.33;2.33;;;;;;;-142.75;100.00;76310.47;5000586;28;20052;-66
2023/01/16 01:50:55;;;;;;;4.88;2.00;;;;;;;-142.75;100.00;76304.56;5019082;28;20040;-65
2023/01/16 01:53:33;;;;;;;9.03;2.10;;;;;;;-142.75;100.00;76310.47;5022101;28;20025;-63
2023/01/16 01:56:07;;;;;;;8.50;2.00;;;;;;;-142.75;100.00;76304.56;5021863;28;20025;-65
2023/01/16 01:58:33;;;;;;;4.87;1.50;;;;;;;-142.75;100.00;76298.66;5003364;28;20029;-66
2023/01/16 02:01:00;;;;;;;3.03;1.43;;;;;;;-142.75;100.00;76300.63;5021993;28;20033;-66
2023/01/16 02:03:31;;;;;;;3.80;1.63;;;;;;;-142.75;100.00;76273.06;5004253;28;20025;-67
2023/01/16 02:06:02;;;;;;;5.87;1.83;;;;;;;-142.75;100.00;76267.16;5021772;28;20048;-63
2023/01/16 02:08:30;;;;;;;5.80;1.63;;;;;;;-142.75;100.00;76261.25;5003067;28;20033;-66
2023/01/16 02:11:07;;;;;;;5.67;2.13;;;;;;;-142.75;100.00;76275.03;5021718;28;20109;-65
2023/01/16 02:13:33;;;;;;;9.17;1.90;;;;;;;-142.75;100.00;76290.78;5021989;28;20025;-67
2023/01/16 02:22:05;;;;;;;3.83;1.90;;;;;;;-142.75;100.00;76278.97;5021600;28;20049;-65
2023/01/16 02:24:44;;;;;;;5.77;2.43;;;;;;;-142.75;100.00;76253.38;5021747;28;20782;-66
2023/01/16 02:27:10;;;;;;;9.10;3.37;;;;;;;-142.75;100.00;76263.22;5020635;28;20025;-65
2023/01/16 02:30:30;;;;;;;8.93;2.67;;;;;;;-142.75;100.00;76255.34;5021545;28;20025;-66
2023/01/16 02:33:18;;;;;;;5.30;2.30;;;;;;;-142.75;100.00;76259.28;4977533;28;20038;-65
2023/01/16 02:35:58;;;;;;;4.93;2.00;;;;;;;-142.75;100.00;76223.84;5003556;28;20506;-67
2023/01/16 02:38:31;;;;;;;4.63;2.00;;;;;;;-142.75;100.00;76231.72;5020476;28;20048;-67
2023/01/16 02:41:21;;;;;;;5.30;2.17;;;;;;;-142.75;100.00;76223.84;5021132;28;20025;-66
2023/01/16 02:43:57;;;;;;;4.50;1.73;;;;;;;-142.75;100.00;76233.69;5003680;28;20022;-66
2023/01/16 02:46:33;;;;;;;3.10;1.60;;;;;;;-142.75;100.00;76192.38;5021134;28;20025;-66
2023/01/16 02:49:20;;;;;;;5.47;1.67;;;;;;;-142.75;100.00;76208.09;5003147;28;20641;-65
2023/01/16 02:51:54;;;;;;;5.80;2.15;;;;;;;-142.75;100.00;76188.44;5003703;28;20839;-68
2023/01/16 02:54:32;;;;;;;8.40;2.20;;;;;;;-142.75;100.00;76194.34;5020768;28;20025;-66
2023/01/16 02:57:05;;;;;;;4.23;1.73;;;;;;;-142.75;100.00;76182.53;5020254;28;20108;-63
2023/01/16 02:59:32;;;;;;;7.60;2.00;;;;;;;-142.75;100.00;76180.56;5020741;28;20021;-67
2023/01/16 03:01:57;;;;;;;8.53;2.20;;;;;;;-142.75;100.00;76188.44;5020553;28;20844;-64
2023/01/16 03:04:49;;;;;;;8.88;1.95;;;;;;;-142.75;100.00;76160.88;5020770;28;20040;-67
2023/01/16 03:07:31;;;;;;;4.73;1.90;;;;;;;-142.75;100.00;76153.00;5019842;28;20039;-65
2023/01/16 03:10:21;;;;;;;4.67;1.87;;;;;;;-142.75;100.00;76164.81;5020294;28;20040;-66
2023/01/16 03:12:46;;;;;;;4.97;1.80;;;;;;;-142.75;100.00;76168.75;5020678;28;20475;-68
2023/01/16 03:15:30;;;;;;;8.43;2.17;;;;;;;-142.75;100.00;76162.84;5002629;28;20044;-67
2023/01/16 03:18:13;;;;;;;8.77;1.70;;;;;;;-142.75;100.00;76141.19;5019504;28;20472;-67
2023/01/16 03:21:08;;;;;;;2.70;1.30;;;;;;;-142.75;100.00;76151.03;5020492;28;20029;-66
2023/01/16 03:23:47;;;;;;;3.27;1.43;;;;;;;-142.75;100.00;76156.94;5003005;28;20022;-65
2023/01/16 03:26:43;;;;;;;6.30;1.27;;;;;;;-142.75;100.00;76180.56;5002507;28;20075;-67
2023/01/16 03:29:21;;;;;;;4.03;1.13;;;;;;;-142.75;100.00;76141.19;5018835;28;20034;-67
2023/01/16 03:32:02;;;;;;;5.90;1.13;;;;;;;-142.75;100.00;76154.97;5020556;28;20366;-67
2023/01/16 03:34:42;;;;;;;7.00;1.37;;;;;;;-142.75;100.00;76133.31;5020306;28;20559;-66
2023/01/16 03:37:13;;;;;;;6.63;1.43;;;;;;;-142.75;100.00;76135.28;5019506;28;20067;-65
2023/01/16 03:39:43;;;;;;;3.53;1.63;;;;;;;-142.75;100.00;76109.69;5020186;28;20784;-67
2023/01/16 03:42:13;;;;;;;4.60;1.00;;;;;;;-142.75;100.00;76107.72;5019880;28;20470;-67
2023/01/16 03:44:44;;;;;;;7.10;1.50;;;;;;;-142.75;100.00;76097.88;5020068;28;20036;-66
2023/01/16 03:47:18;;;;;;;2.87;0.60;;;;;;;-142.75;100.00;76093.94;5018824;28;20028;-67
2023/01/16 03:49:48;;;;;;;2.40;0.80;;;;;;;-142.75;100.00;76090.00;5019770;28;20176;-67
2023/01/16 03:52:17;;;;;;;11.90;1.27;;;;;;;-142.75;100.00;76091.97;5019653;28;20104;-67
2023/01/16 03:54:54;;;;;;;3.17;0.90;;;;;;;-142.75;100.00;76068.38;5019624;28;20472;-68
2023/01/16 03:57:26;;;;;;;3.17;0.90;;;;;;;-142.75;100.00;76082.13;5019340;28;20119;-69
2023/01/16 03:59:53;;;;;;;3.57;1.00;;;;;;;-142.75;100.00;76066.41;5019940;28;20632;-66
2023/01/16 04:02:23;;;;;;;4.43;0.80;;;;;;;-142.75;100.00;76050.66;5019553;28;20031;-68
2023/01/16 04:04:55;;;;;;;3.70;0.90;;;;;;;-142.75;100.00;76056.56;5019913;28;20405;-69
2023/01/16 04:07:30;;;;;;;2.87;0.83;;;;;;;-142.75;100.00;76062.47;5001174;28;20047;-66
2023/01/16 04:10:03;;;;;;;2.03;0.90;;;;;;;-142.75;100.00;76054.59;5019662;28;20033;-66
2023/01/16 04:12:34;;;;;;;3.93;0.80;;;;;;;-142.75;100.00;76066.41;5019947;28;21369;-68
2023/01/16 04:15:02;;;;;;;3.73;1.10;;;;;;;-142.75;100.00;76058.53;5018885;28;20504;-69
2023/01/16 04:17:29;;;;;;;5.17;1.17;;;;;;;-142.75;100.00;76070.34;5018692;28;20076;-67
2023/01/16 04:19:55;;;;;;;3.63;1.10;;;;;;;-142.75;100.00;76062.47;5019633;28;20025;-67
2023/01/16 04:22:23;;;;;;;4.90;1.10;;;;;;;-142.75;100.00;76044.75;5019289;28;20480;-67
2023/01/16 04:24:51;;;;;;;4.07;0.90;;;;;;;-142.75;100.00;76032.94;5001989;28;20091;-67
2023/01/16 04:27:18;;;;;;;4.83;1.03;;;;;;;-142.75;100.00;76029.00;5000929;28;20026;-67
2023/01/16 04:29:43;;;;;;;4.40;1.40;;;;;;;-142.75;100.00;76011.28;5001537;28;20064;-67
2023/01/16 04:32:08;;;;;;;4.28;1.23;;;;;;;-142.75;100.00;76003.41;5019314;28;20123;-67
2023/01/16 04:34:34;;;;;;;5.75;1.10;;;;;;;-142.75;100.00;76003.41;5019248;28;20045;-67
2023/01/16 04:36:59;;;;;;;4.97;1.08;;;;;;;-142.75;100.00;75999.47;5018338;28;20033;-66
2023/01/16 04:39:24;;;;;;;3.42;0.85;;;;;;;-142.75;100.00;75985.69;5019326;28;20025;-67
2023/01/16 04:41:50;;;;;;;2.22;1.05;;;;;;;-142.75;100.00;75991.59;5019491;28;20021;-67
2023/01/16 04:44:16;;;;;;;;;;;;;;;-142.75;100.00;75964.03;5019438;28;20128;-67
2023/01/16 04:46:41;;;;;;;5.57;1.20;;;;;;;-142.75;100.00;75981.75;5018381;28;19935;-68
2023/01/16 04:49:07;;;;;;;2.42;0.70;;;;;;;-142.75;100.00;75975.84;5018816;28;20159;-65
2023/01/16 04:51:32;;;;;;;3.20;0.90;;;;;;;-142.75;100.00;75977.81;5001508;28;20068;-66
2023/01/16 04:53:58;;;;;;;2.95;0.57;;;;;;;-142.75;100.00;75971.91;5001232;28;20029;-68
2023/01/16 04:56:23;;;;;;;3.28;1.20;;;;;;;-142.75;100.00;75967.97;5001479;28;20026;-65
2023/01/16 04:58:50;;;;;;;4.07;0.90;;;;;;;-142.75;100.00;75971.91;5018879;28;20033;-66
2023/01/16 05:01:17;;;;;;;5.67;1.10;;;;;;;-142.75;100.00;75958.16;5001075;28;20021;-67
2023/01/16 05:03:42;;;;;;;2.87;1.00;;;;;;;-142.75;100.00;75946.34;5018870;28;20686;-67
2023/01/16 05:06:08;;;;;;;5.68;1.10;;;;;;;-142.75;100.00;75920.75;5018930;28;20025;-68
2023/01/16 05:08:33;;;;;;;2.08;1.00;;;;;;;-142.75;100.00;75930.59;5017730;28;20438;-68
2023/01/16 05:11:00;;;;;;;5.47;1.85;;;;;;;-142.75;100.00;75920.75;5018891;28;20038;-66
2023/01/16 05:13:27;;;;;;;8.27;1.53;;;;;;;-142.75;100.00;75918.78;5018978;28;20021;-65
2023/01/16 05:15:52;;;;;;;5.30;1.27;;;;;;;-142.75;100.00;75920.75;5018938;28;20025;-66
2023/01/16 05:18:17;;;;;;;6.38;1.35;;;;;;;-142.75;100.00;75908.94;5000642;28;20509;-68
2023/01/16 05:20:43;;;;;;;6.13;1.00;;;;;;;-142.75;100.00;75893.19;5019187;28;20495;-67
2023/01/16 05:23:11;;;;;;;5.20;1.40;;;;;;;-142.75;100.00;75895.16;5001055;28;20033;-66
2023/01/16 05:25:39;;;;;;;5.20;1.10;;;;;;;-142.75;100.00;75889.25;5019667;28;20021;-66
2023/01/16 05:28:05;;;;;;;5.97;1.60;;;;;;;-142.75;100.00;75885.31;5021711;28;20581;-65
2023/01/16 05:30:31;;;;;;;6.75;1.83;;;;;;;-142.75;100.00;75873.50;5004649;28;20029;-68
2023/01/16 05:32:56;;;;;;;5.47;1.35;;;;;;;-142.75;100.00;75861.69;5022588;28;20037;-65
2023/01/16 05:35:22;;;;;;;3.63;1.15;;;;;;;-142.75;100.00;75838.09;5022488;28;20120;-64
2023/01/16 05:37:47;;;;;;;6.15;1.38;;;;;;;-142.75;100.00;75845.97;5022127;28;20018;-66
2023/01/16 05:40:13;;;;;;;4.30;1.17;;;;;;;-142.75;100.00;75828.25;5004656;28;20070;-66
2023/01/16 05:42:41;;;;;;;5.47;1.23;;;;;;;-142.75;100.00;75816.44;5022110;28;20021;-66
2023/01/16 05:45:07;;;;;;;6.17;1.57;;;;;;;-142.75;100.00;75798.72;5022081;28;20052;-65
2023/01/16 05:47:33;;;;;;;7.07;1.20;;;;;;;-142.75;100.00;75794.78;5021523;28;20023;-66
2023/01/16 05:49:58;;;;;;;4.65;1.40;;;;;;;-142.75;100.00;75798.72;5004318;28;20447;-66
2023/01/16 05:52:25;;;;;;;5.88;1.33;;;;;;;-142.75;100.00;75782.97;5022045;28;20017;-65
2023/01/16 05:54:51;;;;;;;3.93;0.90;;;;;;;-142.75;100.00;75773.13;5022403;28;20383;-66
2023/01/16 05:57:16;;;;;;;;;;;;;;;-142.75;100.00;75777.06;5021453;28;20028;-66
2023/01/16 05:59:45;;;;;;;4.80;0.97;;;;;;;-142.75;100.00;75782.97;5020642;28;19912;-65
2023/01/16 06:02:11;;;;;;;4.30;1.00;;;;;;;-142.75;100.00;75757.41;5021641;28;20021;-64
2023/01/16 06:04:36;;;;;;;6.03;1.30;;;;;;;-142.75;100.00;75757.41;5021893;28;20079;-66
2023/01/16 06:07:02;;;;;;;8.25;1.40;;;;;;;-142.75;100.00;75751.50;5003073;28;20068;-67
2023/01/16 06:09:27;;;;;;;4.43;0.80;;;;;;;-142.75;100.00;75725.91;5021823;28;20124;-67
2023/01/16 06:11:52;;;;;;;1.85;0.70;;;;;;;-142.75;100.00;75731.81;5022266;28;20051;-65
2023/01/16 06:14:17;;;;;;;4.53;1.33;;;;;;;-142.75;100.00;75716.06;5021842;28;20411;-68
2023/01/16 06:16:43;;;;;;;4.68;1.92;;;;;;;-142.75;100.00;75706.22;5021427;28;20025;-66
2023/01/16 06:19:08;;;;;;;4.88;1.60;;;;;;;-142.75;100.00;75700.31;5021741;28;20021;-66
2023/01/16 06:21:33;;;;;;;5.85;1.48;;;;;;;-142.75;100.00;75702.28;5021743;28;20037;-66
2023/01/16 06:23:59;;;;;;;3.30;0.85;;;;;;;-142.75;100.00;75692.44;5003758;28;20048;-66
2023/01/16 06:26:24;;;;;;;7.03;1.15;;;;;;;-142.75;100.00;75702.28;5021920;28;20056;-63
2023/01/16 06:28:49;;;;;;;4.68;1.15;;;;;;;-142.75;100.00;75676.69;5003263;28;20026;-67
2023/01/16 06:31:15;;;;;;;16.92;1.88;;;;;;;-142.75;100.00;75660.97;5021198;28;20036;-67
2023/01/16 06:33:40;;;;;;;6.95;1.38;;;;;;;-142.75;100.00;75637.34;5021458;28;21015;-66
2023/01/16 06:36:05;;;;;;;4.80;1.00;;;;;;;-142.75;100.00;75655.06;5020706;28;20025;-66
2023/01/16 06:38:31;;;;;;;7.90;1.05;;;;;;;-142.75;100.00;75641.28;5002679;28;20029;-65
2023/01/16 06:40:56;;;;;;;5.93;1.30;;;;;;;-142.75;100.00;75633.41;5019975;28;20033;-66
2023/01/16 06:43:26;;;;;;;8.20;1.33;;;;;;;-142.75;100.00;75611.75;5021169;28;20851;-67
2023/01/16 06:45:52;;;;;;;4.73;1.13;;;;;;;-142.75;100.00;75623.56;5021165;28;20423;-66
2023/01/16 06:48:18;;;;;;;3.53;1.10;;;;;;;-142.75;100.00;75609.78;5019993;28;20025;-65
2023/01/16 06:50:44;;;;;;;6.63;1.17;;;;;;;-142.75;100.00;75607.81;5021235;28;20029;-64
2023/01/16 06:53:09;;;;;;;7.20;1.23;;;;;;;-142.75;100.00;75592.09;5020804;28;20029;-63
2023/01/16 06:55:35;;;;;;;6.90;1.50;;;;;;;-142.75;100.00;75603.88;5020947;28;20475;-66
2023/01/16 06:58:00;;;;;;;6.68;1.23;;;;;;;-142.75;100.00;75594.06;5002156;28;20057;-66
2023/01/16 07:00:26;;;;;;;8.93;1.20;;;;;;;-142.75;100.00;75594.06;5003118;28;20120;-65
2023/01/16 07:02:54;;;;;;;6.68;1.50;;;;;;;-142.75;100.00;75576.34;5021578;28;20022;-66
2023/01/16 07:05:21;;;;;;;7.90;1.27;;;;;;;-142.75;100.00;75556.66;5020444;28;20858;-66
2023/01/16 07:07:46;;;;;;;3.83;1.00;;;;;;;-142.75;100.00;75554.69;5019850;28;20776;-63
2023/01/16 07:10:11;;;;;;;4.63;1.45;;;;;;;-142.75;100.00;75538.94;5023495;22;20034;-68
2023/01/16 07:12:37;;;;;;;6.22;1.33;;;;;;;-142.75;100.00;75533.03;4996600;28;20025;-67
2023/01/16 07:23:20;;;;;;;4.20;1.40;;;;;;;-142.75;100.00;75499.59;4998528;28;20040;-67
2023/01/16 07:25:46;;;;;;;6.03;0.80;;;;;;;-142.75;100.00;75475.97;5001201;28;20070;-66
2023/01/16 07:28:12;;;;;;;6.50;1.42;;;;;;;-142.75;100.00;75475.97;4999710;28;20025;-67
2023/01/16 07:30:38;;;;;;;3.92;1.23;;;;;;;-142.75;100.00;75456.28;5000420;28;20032;-67
2023/01/16 07:33:03;;;;;;;3.30;0.98;;;;;;;-142.75;100.00;75460.22;5000941;28;20486;-66
2023/01/16 07:35:28;;;;;;;5.22;1.15;;;;;;;-142.75;100.00;75460.22;5000325;28;20032;-68
2023/01/16 07:37:56;;;;;;;12.65;1.90;;;;;;;-142.75;100.00;75436.59;5000307;28;20024;-67
2023/01/16 07:40:22;;;;;;;8.10;1.10;;;;;;;-142.75;100.00;75438.56;4998791;28;20760;-67
2023/01/16 07:42:51;;;;;;;10.93;2.03;;;;;;;-142.75;100.00;75430.72;5000579;28;20100;-68
2023/01/16 07:45:16;;;;;;;5.40;1.43;;;;;;;-142.75;100.00;75448.41;5000096;28;20430;-68
2023/01/16 07:47:42;;;;;;;8.07;1.70;;;;;;;-142.75;100.00;75434.66;5014190;28;20507;-69
2023/01/16 07:50:08;;;;;;;3.15;1.63;;;;;;;-142.75;100.00;75432.69;4999425;28;20022;-68
2023/01/16 07:52:33;;;;;;;8.15;1.88;;;;;;;-142.75;100.00;75420.88;5000315;28;20057;-65
2023/01/16 07:54:58;;;;;;;4.15;1.55;;;;;;;-142.75;100.00;75420.88;4998934;28;20717;-69
2023/01/16 07:57:25;;;;;;;3.72;1.23;;;;;;;-142.75;100.00;75413.00;4999470;28;20022;-68
2023/01/16 07:59:50;;;;;;;7.30;1.13;;;;;;;-142.75;100.00;75407.09;5000278;28;20026;-69
2023/01/16 08:02:16;;;;;;;6.13;1.00;;;;;;;-142.75;100.00;75401.19;5000404;28;20037;-68
2023/01/16 08:04:41;;;;;;;4.65;0.82;;;;;;;-142.75;100.00;75393.31;4999865;28;20048;-68
2023/01/16 08:07:07;;;;;;;4.15;1.17;;;;;;;-142.75;100.00;75383.47;4999170;28;20052;-67
2023/01/16 08:09:32;;;;;;;6.35;1.15;;;;;;;-142.75;100.00;75389.38;4999556;28;20036;-67
2023/01/16 08:11:57;;;;;;;3.13;0.98;;;;;;;-142.75;100.00;75387.41;5000023;28;20029;-67
2023/01/16 08:14:23;;;;;;;11.77;1.77;;;;;;;-142.75;100.00;75363.78;4999972;28;20034;-66
2023/01/16 08:16:48;;;;;;;5.25;1.70;;;;;;;-142.75;100.00;75363.78;4998216;28;20022;-67
2023/01/16 08:19:13;;;;;;;3.70;1.30;;;;;;;-142.75;100.00;75369.69;4999790;28;20018;-68
2023/01/16 08:21:39;;;;;;;6.82;1.77;;;;;;;-142.75;100.00;75369.69;4999583;28;20025;-67
2023/01/16 08:24:05;;;;;;;2.80;1.00;;;;;;;-142.75;100.00;75363.78;4999768;28;20083;-67
2023/01/16 08:26:30;;;;;;;2.63;1.48;;;;;;;-142.75;100.00;75346.09;4999295;28;20026;-65
2023/01/16 08:28:56;;;;;;;6.72;2.25;;;;;;;-142.75;100.00;75352.00;4999212;28;20034;-64
2023/01/16 08:31:21;;;;;;;4.22;1.27;;;;;;;-142.75;100.00;75361.84;4999637;28;20037;-62
2023/01/16 08:33:48;;;;;;;5.30;2.63;;;;;;;-142.75;100.00;75334.28;4998731;28;20104;-67
2023/01/16 08:36:15;;;;;;;3.13;1.60;;;;;;;-142.75;100.00;75342.16;4999513;28;20029;-69
2023/01/16 08:38:40;;;;;;;2.93;1.37;;;;;;;-142.75;100.00;75332.31;4997635;28;20108;-66
2023/01/16 08:51:21;;;;;;;4.30;1.40;;;;;;;-142.75;100.00;75328.38;4999355;28;20138;-63
2023/01/16 08:52:03;;;;;;;3.93;1.40;;;;;;;-142.75;100.00;75316.56;4999618;28;20040;-66
2023/01/16 08:54:29;;;;;;;4.40;1.25;;;;;;;-142.75;100.00;75306.72;4999303;28;20058;-66
2023/01/16 08:56:54;;;;;;;3.05;1.60;;;;;;;-142.75;100.00;75310.66;4998893;28;20084;-66
2023/01/16 08:59:19;;;;;;;6.00;1.33;;;;;;;-142.75;100.00;75298.84;4999610;28;20171;-67
2023/01/16 09:01:45;;;;;;;7.85;1.40;;;;;;;-142.75;100.00;75291.00;5003394;28;20527;-67
2023/01/16 09:04:10;;;;;;;6.88;1.20;;;;;;;-142.75;100.00;75310.66;5003460;28;20555;-66
2023/01/16 09:06:37;;;;;;;2.30;1.45;;;;;;;-142.75;100.00;75291.00;5002846;28;20072;-68
2023/01/16 09:09:07;;;;;;;5.60;1.67;;;;;;;-142.75;100.00;75275.25;5003227;28;20030;-66
2023/01/16 09:14:17;;;;;;;5.47;1.70;;;;;;;-142.75;100.00;75267.38;5003487;28;20204;-67
2023/01/16 09:16:43;;;;;;;3.20;1.83;;;;;;;-142.75;100.00;75267.38;5002344;28;20513;-66
2023/01/16 09:19:08;;;;;;;3.00;1.63;;;;;;;-142.75;100.00;75267.38;5002868;28;20037;-68
2023/01/16 09:21:34;;;;;;;5.45;1.70;;;;;;;-142.75;100.00;75267.38;5002902;28;20022;-67
2023/01/16 09:23:59;;;;;;;3.10;1.20;;;;;;;-142.75;100.00;75275.25;5002972;28;20075;-66
2023/01/16 09:26:24;;;;;;;2.45;1.33;;;;;;;-142.75;100.00;75253.59;5002963;28;20072;-67
2023/01/16 09:28:50;;;;;;;2.22;1.20;;;;;;;-142.75;100.00;75261.47;5002203;28;20338;-65
2023/01/16 09:31:16;;;;;;;5.85;1.38;;;;;;;-142.75;100.00;75251.63;5002613;28;21131;-68
2023/01/16 09:33:41;;;;;;;2.78;1.23;;;;;;;-142.75;100.00;75263.44;5002926;28;20034;-69
2023/01/16 09:36:07;;;;;;;6.57;1.60;;;;;;;-142.75;100.00;75257.53;5002831;28;20557;-68
2023/01/16 09:38:33;;;;;;;1.77;1.15;;;;;;;-142.75;100.00;75224.09;5002116;28;20029;-67
2023/01/16 09:40:59;;;;;;;2.42;1.08;;;;;;;-142.75;100.00;75222.13;5002529;28;20026;-67
2023/01/16 09:43:35;;;;;;;3.45;1.77;;;;;;;-142.75;100.00;75224.09;5002384;28;20082;-67
2023/01/16 09:46:15;;;;;;;2.85;1.70;;;;;;;-142.75;100.00;75208.34;5002510;28;20028;-67
2023/01/16 09:48:53;;;;;;;6.53;1.67;;;;;;;-142.75;100.00;75206.38;5000520;28;20803;-66
2023/01/16 09:51:24;;;;;;;4.40;1.90;;;;;;;-142.75;100.00;75208.34;5002535;28;20458;-67
2023/01/16 09:59:42;;;;;;;6.60;2.43;;;;;;;-142.75;100.00;75188.66;5002368;28;20037;-65
2023/01/16 10:02:23;;;;;;;4.75;2.10;;;;;;;-142.75;100.00;75192.59;5002316;28;20132;-67
2023/01/16 10:04:50;;;;;;;2.93;1.50;;;;;;;-142.75;100.00;75172.91;5002409;28;20113;-67
2023/01/16 10:07:31;;;;;;;7.77;1.97;;;;;;;-142.75;100.00;75188.66;5001475;28;20603;-66
2023/01/16 10:10:05;;;;;;;5.67;1.57;;;;;;;-142.75;100.00;75163.09;5002014;28;20040;-67
2023/01/16 10:12:35;;;;;;;3.30;1.70;;;;;;;-142.75;100.00;75167.00;5001212;28;20034;-66
2023/01/16 10:15:31;;;;;;;3.60;1.80;;;;;;;-142.75;100.00;75163.09;5002124;28;20030;-67
2023/01/16 10:18:00;;;;;;;3.63;1.50;;;;;;;-142.75;100.00;75157.19;5001073;28;20026;-64
2023/01/16 10:21:07;;;;;;;3.30;1.30;;;;;;;-142.75;100.00;75149.31;5001810;28;20856;-67
2023/01/16 10:23:50;;;;;;;4.10;1.70;;;;;;;-142.75;100.00;75151.28;5017071;28;20038;-69
2023/01/16 10:26:38;;;;;;;7.13;1.60;;;;;;;-142.75;100.00;75121.75;5016902;28;20048;-67
2023/01/16 10:29:20;;;;;;;2.53;1.60;;;;;;;-142.75;100.00;75141.44;4971513;28;20811;-66
2023/01/16 10:32:34;;;;;;;2.67;1.27;;;;;;;-142.75;100.00;75127.66;5002087;28;20033;-65
2023/01/16 10:35:12;;;;;;;4.43;1.60;;;;;;;-142.75;100.00;75113.88;4940566;29;20110;-67
2023/01/16 10:37:40;;;;;;;2.00;1.33;;;;;;;-142.75;100.00;75109.94;4939897;29;20023;-69
2023/01/16 10:40:25;;;;;;;4.37;1.30;;;;;;;-142.75;100.00;75098.16;4978802;28;20049;-67
2023/01/16 10:49:25;;;;;;;5.20;1.10;;;;;;;-142.75;100.00;75106.00;4982695;28;20043;-67
2023/01/16 10:51:32;;;;;;;1.77;0.90;;;;;;;-142.75;100.00;75094.22;5001191;28;20528;-65
2023/01/16 10:53:58;;;;;;;;;;;;;;;-142.75;100.00;75078.47;5001745;28;20087;-65
2023/01/16 10:56:24;;;;;;;2.30;0.70;;;;;;;-142.75;100.00;75090.28;5001068;28;19913;-66
2023/01/16 10:58:51;;;;;;;1.30;0.70;;;;;;;-142.75;100.00;75070.59;5000888;28;20053;-66
2023/01/16 11:01:18;;;;;;;2.10;0.97;;;;;;;-142.75;100.00;75060.75;4999874;28;20181;-67
2023/01/16 11:03:48;;;;;;;1.57;0.87;;;;;;;-142.75;100.00;75043.03;5001046;28;20379;-68
2023/01/16 11:06:25;;;;;;;2.87;1.10;;;;;;;-142.75;100.00;75046.97;5001121;28;20036;-67
2023/01/16 11:08:55;;;;;;;7.00;1.30;;;;;;;-142.75;100.00;75035.19;5000555;28;20084;-69
2023/01/16 11:19:45;;;;;;;1.80;0.90;;;;;;;-142.75;100.00;75011.56;5000782;28;20036;-65
2023/01/16 11:22:27;;;;;;;1.50;0.87;;;;;;;-142.75;100.00;75007.63;4999553;28;20096;-66
2023/01/16 11:24:58;;;;;;;1.20;0.70;;;;;;;-142.75;100.00;74997.78;5001255;28;20018;-67
2023/01/16 11:27:33;;;;;;;1.60;1.00;;;;;;;-142.75;100.00;74984.00;4999973;28;20024;-66
2023/01/16 11:30:04;;;;;;;1.80;0.80;;;;;;;-142.75;100.00;74989.91;4995281;28;20220;-67
2023/01/16 11:32:34;;;;;;;0.80;0.57;;;;;;;-142.75;100.00;75007.63;5000836;28;20025;-67
2023/01/16 11:35:00;;;;;;;1.83;0.70;;;;;;;-142.75;100.00;75001.72;5000508;28;20106;-66
2023/01/16 11:37:28;;;;;;;0.70;0.40;;;;;;;-142.75;100.00;74991.88;4999802;28;20026;-68
2023/01/16 11:39:59;;;;;;;1.50;0.50;;;;;;;-142.75;100.00;75003.69;5000860;28;20050;-68
2023/01/16 11:48:22;;;;;;;2.23;0.50;;;;;;;-142.75;100.00;74995.81;4999674;28;20103;-66
2023/01/16 11:50:50;;;;;;;0.57;0.40;;;;;;;-142.75;100.00;74985.97;5000517;28;20048;-68
2023/01/16 11:53:15;;;;;;;2.50;0.50;;;;;;;-142.75;100.00;74993.84;5000114;28;20451;-67
2023/01/16 11:55:58;;;;;;;1.92;0.85;;;;;;;-142.75;100.00;75009.59;5000434;28;20498;-66
2023/01/16 11:58:31;;;;;;;2.53;0.40;;;;;;;-142.75;100.00;75009.59;4999240;28;20032;-68
2023/01/16 12:01:03;;;;;;;0.60;0.30;;;;;;;-142.75;100.00;75007.63;5000175;28;20441;-65
2023/01/16 12:04:18;;;;;;;0.90;0.50;;;;;;;-142.75;100.00;75011.56;5000192;28;20034;-65
2023/01/16 12:07:09;;;;;;;1.97;0.60;;;;;;;-142.75;100.00;75003.69;4977754;28;20049;-67
2023/01/16 12:09:43;;;;;;;3.03;0.60;;;;;;;-142.75;100.00;75007.63;4999997;28;20109;-67
2023/01/16 12:15:13;;;;;;;2.50;0.82;;;;;;;-142.75;100.00;75009.59;4999550;28;20041;-66